sensor_id;sensor_type;location;lat;lon;timestamp;temperature;humidity
20422;DHT22;10370;53.102;18.034;2022-07-23T00:00:24;17.60;99.90
20422;DHT22;10370;53.102;18.034;2022-07-23T00:05:45;17.50;99.90
20422;DHT22;10370;53.102;18.034;2022-07-23T00:11:06;17.40;99.90
20422;DHT22;10370;53.102;18.034;2022-07-23T00:16:28;17.30;99.90
20422;DHT22;10370;53.102;18.034;2022-07-23T00:21:49;17.20;99.90
20422;DHT22;10370;53.102;18.034;2022-07-23T00:27:10;17.10;99.90
20422;DHT22;10370;53.102;18.034;2022-07-23T00:32:31;17.10;99.90
20422;DHT22;10370;53.102;18.034;2022-07-23T00:38:12;17.00;99.90
20422;DHT22;10370;53.102;18.034;2022-07-23T00:43:33;16.90;99.90
20422;DHT22;10370;53.102;18.034;2022-07-23T00:48:54;16.80;99.90
20422;DHT22;10370;53.102;18.034;2022-07-23T00:54:16;16.80;99.90
20422;DHT22;10370;53.102;18.034;2022-07-23T00:59:41;16.70;99.90
20422;DHT22;10370;53.102;18.034;2022-07-23T01:05:03;16.70;99.90
20422;DHT22;10370;53.102;18.034;2022-07-23T01:10:24;16.60;99.90
20422;DHT22;10370;53.102;18.034;2022-07-23T01:15:51;16.50;99.90
20422;DHT22;10370;53.102;18.034;2022-07-23T01:21:13;16.50;99.90
20422;DHT22;10370;53.102;18.034;2022-07-23T01:26:34;16.40;99.90
20422;DHT22;10370;53.102;18.034;2022-07-23T01:31:55;16.40;99.90
20422;DHT22;10370;53.102;18.034;2022-07-23T01:37:17;16.30;99.90
20422;DHT22;10370;53.102;18.034;2022-07-23T01:42:38;16.20;99.90
20422;DHT22;10370;53.102;18.034;2022-07-23T01:47:59;16.30;99.90
20422;DHT22;10370;53.102;18.034;2022-07-23T01:53:20;16.20;99.90
20422;DHT22;10370;53.102;18.034;2022-07-23T01:58:41;16.10;99.90
20422;DHT22;10370;53.102;18.034;2022-07-23T02:04:02;15.80;99.90
20422;DHT22;10370;53.102;18.034;2022-07-23T02:09:23;15.80;99.90
20422;DHT22;10370;53.102;18.034;2022-07-23T02:14:44;15.70;99.90
20422;DHT22;10370;53.102;18.034;2022-07-23T02:20:06;15.50;99.90
20422;DHT22;10370;53.102;18.034;2022-07-23T02:25:27;15.40;99.90
20422;DHT22;10370;53.102;18.034;2022-07-23T02:30:48;15.40;99.90
20422;DHT22;10370;53.102;18.034;2022-07-23T02:36:09;15.30;99.90
20422;DHT22;10370;53.102;18.034;2022-07-23T02:41:30;15.20;99.90
20422;DHT22;10370;53.102;18.034;2022-07-23T02:46:51;15.30;99.90
20422;DHT22;10370;53.102;18.034;2022-07-23T02:57:33;15.10;99.90
20422;DHT22;10370;53.102;18.034;2022-07-23T03:02:54;15.20;99.90
20422;DHT22;10370;53.102;18.034;2022-07-23T03:08:15;15.20;99.90
20422;DHT22;10370;53.102;18.034;2022-07-23T03:13:40;15.10;99.90
20422;DHT22;10370;53.102;18.034;2022-07-23T03:19:01;15.20;99.90
20422;DHT22;10370;53.102;18.034;2022-07-23T03:24:26;15.20;99.90
20422;DHT22;10370;53.102;18.034;2022-07-23T03:30:06;15.20;99.90
20422;DHT22;10370;53.102;18.034;2022-07-23T03:35:27;15.40;99.90
20422;DHT22;10370;53.102;18.034;2022-07-23T03:40:48;15.50;99.90
20422;DHT22;10370;53.102;18.034;2022-07-23T03:46:09;15.70;99.90
20422;DHT22;10370;53.102;18.034;2022-07-23T03:51:30;15.60;99.90
20422;DHT22;10370;53.102;18.034;2022-07-23T03:56:51;15.80;99.90
20422;DHT22;10370;53.102;18.034;2022-07-23T04:02:12;15.90;99.90
20422;DHT22;10370;53.102;18.034;2022-07-23T04:07:33;16.20;99.90
20422;DHT22;10370;53.102;18.034;2022-07-23T04:12:54;16.30;99.90
20422;DHT22;10370;53.102;18.034;2022-07-23T04:18:16;16.60;99.90
20422;DHT22;10370;53.102;18.034;2022-07-23T04:23:37;16.90;99.90
20422;DHT22;10370;53.102;18.034;2022-07-23T04:28:58;17.20;99.90
20422;DHT22;10370;53.102;18.034;2022-07-23T04:34:19;17.40;99.90
20422;DHT22;10370;53.102;18.034;2022-07-23T04:39:40;17.60;99.90
20422;DHT22;10370;53.102;18.034;2022-07-23T04:45:01;17.80;99.90
20422;DHT22;10370;53.102;18.034;2022-07-23T04:50:24;18.30;99.90
20422;DHT22;10370;53.102;18.034;2022-07-23T04:55:45;19.00;99.90
20422;DHT22;10370;53.102;18.034;2022-07-23T05:01:06;20.20;99.90
20422;DHT22;10370;53.102;18.034;2022-07-23T05:06:27;22.20;99.90
20422;DHT22;10370;53.102;18.034;2022-07-23T05:11:48;25.20;99.90
20422;DHT22;10370;53.102;18.034;2022-07-23T05:17:09;27.50;99.90
20422;DHT22;10370;53.102;18.034;2022-07-23T05:22:30;28.40;99.90
20422;DHT22;10370;53.102;18.034;2022-07-23T05:27:51;28.90;99.90
20422;DHT22;10370;53.102;18.034;2022-07-23T05:33:12;29.30;99.90
20422;DHT22;10370;53.102;18.034;2022-07-23T05:38:33;29.00;99.90
20422;DHT22;10370;53.102;18.034;2022-07-23T05:43:54;29.50;99.90
20422;DHT22;10370;53.102;18.034;2022-07-23T05:49:14;30.20;99.90
20422;DHT22;10370;53.102;18.034;2022-07-23T05:54:36;30.80;99.90
20422;DHT22;10370;53.102;18.034;2022-07-23T05:59:57;31.70;99.90
20422;DHT22;10370;53.102;18.034;2022-07-23T06:05:18;32.80;97.80
20422;DHT22;10370;53.102;18.034;2022-07-23T06:10:39;33.20;95.70
20422;DHT22;10370;53.102;18.034;2022-07-23T06:16:01;32.70;95.10
20422;DHT22;10370;53.102;18.034;2022-07-23T06:21:22;31.40;96.60
20422;DHT22;10370;53.102;18.034;2022-07-23T06:27:04;29.20;99.90
20422;DHT22;10370;53.102;18.034;2022-07-23T06:32:25;26.90;99.90
20422;DHT22;10370;53.102;18.034;2022-07-23T07:29:23;25.30;99.90
20422;DHT22;10370;53.102;18.034;2022-07-23T07:34:44;25.40;99.90
20422;DHT22;10370;53.102;18.034;2022-07-23T07:40:24;25.70;99.90
20422;DHT22;10370;53.102;18.034;2022-07-23T07:45:51;25.70;99.90
20422;DHT22;10370;53.102;18.034;2022-07-23T07:51:12;25.70;99.90
20422;DHT22;10370;53.102;18.034;2022-07-23T07:56:33;25.80;99.90
20422;DHT22;10370;53.102;18.034;2022-07-23T08:01:54;25.80;99.90
20422;DHT22;10370;53.102;18.034;2022-07-23T08:07:16;25.80;99.90
20422;DHT22;10370;53.102;18.034;2022-07-23T08:12:48;25.90;99.90
20422;DHT22;10370;53.102;18.034;2022-07-23T08:18:10;26.10;99.90
20422;DHT22;10370;53.102;18.034;2022-07-23T08:23:31;26.10;99.90
20422;DHT22;10370;53.102;18.034;2022-07-23T08:28:53;26.30;99.90
20422;DHT22;10370;53.102;18.034;2022-07-23T08:34:14;26.50;99.90
20422;DHT22;10370;53.102;18.034;2022-07-23T08:39:34;26.50;99.90
20422;DHT22;10370;53.102;18.034;2022-07-23T08:44:56;26.70;99.90
20422;DHT22;10370;53.102;18.034;2022-07-23T08:50:17;26.60;99.90
20422;DHT22;10370;53.102;18.034;2022-07-23T08:55:38;26.80;99.90
20422;DHT22;10370;53.102;18.034;2022-07-23T09:01:01;26.90;99.90
20422;DHT22;10370;53.102;18.034;2022-07-23T09:06:22;27.00;99.90
20422;DHT22;10370;53.102;18.034;2022-07-23T09:11:46;27.00;99.90
20422;DHT22;10370;53.102;18.034;2022-07-23T09:17:16;26.50;99.90
20422;DHT22;10370;53.102;18.034;2022-07-23T09:22:37;26.00;99.90
20422;DHT22;10370;53.102;18.034;2022-07-23T09:27:59;25.50;99.90
20422;DHT22;10370;53.102;18.034;2022-07-23T09:33:25;24.90;99.90
20422;DHT22;10370;53.102;18.034;2022-07-23T09:38:50;24.70;99.90
20422;DHT22;10370;53.102;18.034;2022-07-23T09:44:17;24.40;99.90
20422;DHT22;10370;53.102;18.034;2022-07-23T09:55:18;23.90;99.90
20422;DHT22;10370;53.102;18.034;2022-07-23T10:00:40;23.60;99.90
20422;DHT22;10370;53.102;18.034;2022-07-23T10:06:01;23.40;99.90
20422;DHT22;10370;53.102;18.034;2022-07-23T10:11:22;23.20;99.90
20422;DHT22;10370;53.102;18.034;2022-07-23T10:16:58;22.70;99.90
20422;DHT22;10370;53.102;18.034;2022-07-23T10:23:02;22.60;99.90
20422;DHT22;10370;53.102;18.034;2022-07-23T10:29:21;22.20;99.90
20422;DHT22;10370;53.102;18.034;2022-07-23T10:41:02;21.90;99.90
20422;DHT22;10370;53.102;18.034;2022-07-23T10:46:25;21.90;99.90
20422;DHT22;10370;53.102;18.034;2022-07-23T10:52:15;22.00;99.90
20422;DHT22;10370;53.102;18.034;2022-07-23T10:57:48;21.90;99.90
20422;DHT22;10370;53.102;18.034;2022-07-23T11:03:31;22.00;99.90
20422;DHT22;10370;53.102;18.034;2022-07-23T11:15:15;21.70;99.90
20422;DHT22;10370;53.102;18.034;2022-07-23T11:20:36;21.90;99.90
20422;DHT22;10370;53.102;18.034;2022-07-23T11:25:57;22.20;99.90
20422;DHT22;10370;53.102;18.034;2022-07-23T11:31:18;22.50;99.90
20422;DHT22;10370;53.102;18.034;2022-07-23T11:36:50;22.90;99.90
20422;DHT22;10370;53.102;18.034;2022-07-23T11:42:18;23.00;99.90
20422;DHT22;10370;53.102;18.034;2022-07-23T11:47:39;22.90;99.90
20422;DHT22;10370;53.102;18.034;2022-07-23T11:53:01;23.00;99.90
20422;DHT22;10370;53.102;18.034;2022-07-23T11:58:23;23.30;99.90
20422;DHT22;10370;53.102;18.034;2022-07-23T12:03:51;23.40;99.90
20422;DHT22;10370;53.102;18.034;2022-07-23T12:09:11;23.60;99.90
20422;DHT22;10370;53.102;18.034;2022-07-23T12:14:32;23.50;99.90
20422;DHT22;10370;53.102;18.034;2022-07-23T12:19:54;23.40;99.90
20422;DHT22;10370;53.102;18.034;2022-07-23T12:25:22;23.10;99.90
20422;DHT22;10370;53.102;18.034;2022-07-23T12:30:45;22.80;99.90
20422;DHT22;10370;53.102;18.034;2022-07-23T12:36:08;22.80;99.90
20422;DHT22;10370;53.102;18.034;2022-07-23T12:41:52;22.60;99.90
20422;DHT22;10370;53.102;18.034;2022-07-23T12:47:14;22.70;99.90
20422;DHT22;10370;53.102;18.034;2022-07-23T12:52:35;22.70;99.90
20422;DHT22;10370;53.102;18.034;2022-07-23T12:58:10;22.70;99.90
20422;DHT22;10370;53.102;18.034;2022-07-23T13:03:41;22.90;99.90
20422;DHT22;10370;53.102;18.034;2022-07-23T13:09:03;22.90;99.90
20422;DHT22;10370;53.102;18.034;2022-07-23T13:14:25;23.00;99.90
20422;DHT22;10370;53.102;18.034;2022-07-23T13:19:46;23.10;99.90
20422;DHT22;10370;53.102;18.034;2022-07-23T13:25:08;22.90;99.90
20422;DHT22;10370;53.102;18.034;2022-07-23T13:30:30;22.80;99.90
20422;DHT22;10370;53.102;18.034;2022-07-23T13:35:51;22.60;99.90
20422;DHT22;10370;53.102;18.034;2022-07-23T13:41:13;22.70;99.90
20422;DHT22;10370;53.102;18.034;2022-07-23T13:46:34;23.10;99.90
20422;DHT22;10370;53.102;18.034;2022-07-23T13:51:56;23.20;99.90
20422;DHT22;10370;53.102;18.034;2022-07-23T13:57:18;23.40;99.90
20422;DHT22;10370;53.102;18.034;2022-07-23T14:02:40;23.10;99.90
20422;DHT22;10370;53.102;18.034;2022-07-23T14:08:02;23.10;99.90
20422;DHT22;10370;53.102;18.034;2022-07-23T14:13:23;23.20;99.90
20422;DHT22;10370;53.102;18.034;2022-07-23T14:18:44;23.20;99.90
20422;DHT22;10370;53.102;18.034;2022-07-23T14:24:05;23.00;99.90
20422;DHT22;10370;53.102;18.034;2022-07-23T14:29:26;23.00;99.90
20422;DHT22;10370;53.102;18.034;2022-07-23T14:34:48;23.00;99.90
20422;DHT22;10370;53.102;18.034;2022-07-23T14:40:09;22.90;99.90
20422;DHT22;10370;53.102;18.034;2022-07-23T14:45:30;22.90;99.90
20422;DHT22;10370;53.102;18.034;2022-07-23T14:50:51;23.10;99.90
20422;DHT22;10370;53.102;18.034;2022-07-23T14:56:13;22.90;99.90
20422;DHT22;10370;53.102;18.034;2022-07-23T15:01:35;22.60;99.90
20422;DHT22;10370;53.102;18.034;2022-07-23T15:06:58;22.50;99.90
20422;DHT22;10370;53.102;18.034;2022-07-23T15:12:19;22.30;99.90
20422;DHT22;10370;53.102;18.034;2022-07-23T15:17:40;22.30;99.90
20422;DHT22;10370;53.102;18.034;2022-07-23T15:23:02;22.20;99.90
20422;DHT22;10370;53.102;18.034;2022-07-23T15:28:23;22.40;99.90
20422;DHT22;10370;53.102;18.034;2022-07-23T15:33:44;22.60;99.90
20422;DHT22;10370;53.102;18.034;2022-07-23T15:39:05;22.70;99.90
20422;DHT22;10370;53.102;18.034;2022-07-23T15:44:27;22.70;99.90
20422;DHT22;10370;53.102;18.034;2022-07-23T15:49:49;22.60;99.90
20422;DHT22;10370;53.102;18.034;2022-07-23T15:55:10;22.70;99.90
20422;DHT22;10370;53.102;18.034;2022-07-23T16:00:33;22.70;99.90
20422;DHT22;10370;53.102;18.034;2022-07-23T16:05:54;22.70;99.90
20422;DHT22;10370;53.102;18.034;2022-07-23T16:11:15;22.70;99.90
20422;DHT22;10370;53.102;18.034;2022-07-23T16:16:36;22.70;99.90
20422;DHT22;10370;53.102;18.034;2022-07-23T16:21:57;22.60;99.90
20422;DHT22;10370;53.102;18.034;2022-07-23T16:27:18;22.60;99.90
20422;DHT22;10370;53.102;18.034;2022-07-23T16:32:40;22.50;99.90
20422;DHT22;10370;53.102;18.034;2022-07-23T16:38:02;22.50;99.90
20422;DHT22;10370;53.102;18.034;2022-07-23T16:43:24;22.40;99.90
20422;DHT22;10370;53.102;18.034;2022-07-23T16:48:47;22.40;99.90
20422;DHT22;10370;53.102;18.034;2022-07-23T16:54:08;22.40;99.90
20422;DHT22;10370;53.102;18.034;2022-07-23T16:59:29;22.40;99.90
20422;DHT22;10370;53.102;18.034;2022-07-23T17:04:50;22.30;99.90
20422;DHT22;10370;53.102;18.034;2022-07-23T17:10:11;22.30;99.90
20422;DHT22;10370;53.102;18.034;2022-07-23T17:15:32;22.30;99.90
20422;DHT22;10370;53.102;18.034;2022-07-23T17:20:53;22.20;99.90
20422;DHT22;10370;53.102;18.034;2022-07-23T17:26:14;22.20;99.90
20422;DHT22;10370;53.102;18.034;2022-07-23T17:31:35;22.10;99.90
20422;DHT22;10370;53.102;18.034;2022-07-23T17:36:56;22.10;99.90
20422;DHT22;10370;53.102;18.034;2022-07-23T17:42:18;22.10;99.90
20422;DHT22;10370;53.102;18.034;2022-07-23T17:47:39;22.10;99.90
20422;DHT22;10370;53.102;18.034;2022-07-23T17:53:00;22.00;99.90
20422;DHT22;10370;53.102;18.034;2022-07-23T17:58:21;22.00;99.90
20422;DHT22;10370;53.102;18.034;2022-07-23T18:03:42;22.00;99.90
20422;DHT22;10370;53.102;18.034;2022-07-23T18:09:04;21.90;99.90
20422;DHT22;10370;53.102;18.034;2022-07-23T18:14:26;21.80;99.90
20422;DHT22;10370;53.102;18.034;2022-07-23T18:19:47;21.80;99.90
20422;DHT22;10370;53.102;18.034;2022-07-23T18:25:09;21.60;99.90
20422;DHT22;10370;53.102;18.034;2022-07-23T18:30:31;21.60;99.90
20422;DHT22;10370;53.102;18.034;2022-07-23T18:35:52;21.50;99.90
20422;DHT22;10370;53.102;18.034;2022-07-23T18:41:13;21.40;99.90
20422;DHT22;10370;53.102;18.034;2022-07-23T18:46:34;21.30;99.90
20422;DHT22;10370;53.102;18.034;2022-07-23T18:51:55;21.30;99.90
20422;DHT22;10370;53.102;18.034;2022-07-23T18:57:16;21.20;99.90
20422;DHT22;10370;53.102;18.034;2022-07-23T19:02:38;21.10;99.90
20422;DHT22;10370;53.102;18.034;2022-07-23T19:08:00;21.00;99.90
20422;DHT22;10370;53.102;18.034;2022-07-23T19:13:21;20.90;99.90
20422;DHT22;10370;53.102;18.034;2022-07-23T19:18:42;20.80;99.90
20422;DHT22;10370;53.102;18.034;2022-07-23T19:24:03;20.70;99.90
20422;DHT22;10370;53.102;18.034;2022-07-23T19:29:27;20.60;99.90
20422;DHT22;10370;53.102;18.034;2022-07-23T19:34:57;20.40;99.90
20422;DHT22;10370;53.102;18.034;2022-07-23T19:40:18;20.30;99.90
20422;DHT22;10370;53.102;18.034;2022-07-23T19:45:40;20.20;99.90
20422;DHT22;10370;53.102;18.034;2022-07-23T19:51:01;20.00;99.90
20422;DHT22;10370;53.102;18.034;2022-07-23T19:56:22;20.00;99.90
20422;DHT22;10370;53.102;18.034;2022-07-23T20:01:50;20.00;99.90
20422;DHT22;10370;53.102;18.034;2022-07-23T20:07:11;19.90;99.90
20422;DHT22;10370;53.102;18.034;2022-07-23T20:12:33;19.80;99.90
20422;DHT22;10370;53.102;18.034;2022-07-23T20:17:54;19.70;99.90
20422;DHT22;10370;53.102;18.034;2022-07-23T20:23:15;19.70;99.90
20422;DHT22;10370;53.102;18.034;2022-07-23T20:28:36;19.60;99.90
20422;DHT22;10370;53.102;18.034;2022-07-23T20:33:58;19.50;99.90
20422;DHT22;10370;53.102;18.034;2022-07-23T20:39:19;19.50;99.90
20422;DHT22;10370;53.102;18.034;2022-07-23T20:44:40;19.40;99.90
20422;DHT22;10370;53.102;18.034;2022-07-23T20:50:01;19.20;99.90
20422;DHT22;10370;53.102;18.034;2022-07-23T20:55:22;19.00;99.90
20422;DHT22;10370;53.102;18.034;2022-07-23T21:00:43;18.70;99.90
20422;DHT22;10370;53.102;18.034;2022-07-23T21:06:04;18.50;99.90
20422;DHT22;10370;53.102;18.034;2022-07-23T21:11:25;18.30;99.90
20422;DHT22;10370;53.102;18.034;2022-07-23T21:16:46;18.20;99.90
20422;DHT22;10370;53.102;18.034;2022-07-23T21:22:08;18.20;99.90
20422;DHT22;10370;53.102;18.034;2022-07-23T21:27:29;18.10;99.90
20422;DHT22;10370;53.102;18.034;2022-07-23T21:32:50;17.90;99.90
20422;DHT22;10370;53.102;18.034;2022-07-23T21:38:11;17.80;99.90
20422;DHT22;10370;53.102;18.034;2022-07-23T21:43:32;17.70;99.90
20422;DHT22;10370;53.102;18.034;2022-07-23T21:48:53;17.60;99.90
20422;DHT22;10370;53.102;18.034;2022-07-23T21:54:14;17.60;99.90
20422;DHT22;10370;53.102;18.034;2022-07-23T21:59:36;17.60;99.90
20422;DHT22;10370;53.102;18.034;2022-07-23T22:04:59;17.40;99.90
20422;DHT22;10370;53.102;18.034;2022-07-23T22:10:20;17.40;99.90
20422;DHT22;10370;53.102;18.034;2022-07-23T22:15:41;17.30;99.90
20422;DHT22;10370;53.102;18.034;2022-07-23T22:21:03;17.20;99.90
20422;DHT22;10370;53.102;18.034;2022-07-23T22:26:45;17.00;99.90
20422;DHT22;10370;53.102;18.034;2022-07-23T22:32:06;16.80;99.90
20422;DHT22;10370;53.102;18.034;2022-07-23T22:37:27;16.50;99.90
20422;DHT22;10370;53.102;18.034;2022-07-23T22:42:49;16.30;99.90
20422;DHT22;10370;53.102;18.034;2022-07-23T22:48:10;16.10;99.90
20422;DHT22;10370;53.102;18.034;2022-07-23T22:53:31;15.90;99.90
20422;DHT22;10370;53.102;18.034;2022-07-23T22:58:52;15.80;99.90
20422;DHT22;10370;53.102;18.034;2022-07-23T23:04:31;15.70;99.90
20422;DHT22;10370;53.102;18.034;2022-07-23T23:09:53;15.60;99.90
20422;DHT22;10370;53.102;18.034;2022-07-23T23:15:13;15.40;99.90
20422;DHT22;10370;53.102;18.034;2022-07-23T23:20:35;15.30;99.90
20422;DHT22;10370;53.102;18.034;2022-07-23T23:25:56;15.20;99.90
20422;DHT22;10370;53.102;18.034;2022-07-23T23:31:18;15.10;99.90
20422;DHT22;10370;53.102;18.034;2022-07-23T23:36:40;14.90;99.90
20422;DHT22;10370;53.102;18.034;2022-07-23T23:42:02;14.80;99.90
20422;DHT22;10370;53.102;18.034;2022-07-23T23:47:23;14.80;99.90
20422;DHT22;10370;53.102;18.034;2022-07-23T23:52:44;14.80;99.90
20422;DHT22;10370;53.102;18.034;2022-07-23T23:58:05;14.60;99.90
